ESMT

Halmstad Airport

Halmstad, Sweden
METAR ESMT 241120Z 32011KT 9999 FEW047 SCT053 12/03 Q1018
Observed Flight Rules
Sep-24 @ 11:20 UTC (12 minutes ago) Visual Flight Rules
Wind Visibility Clouds
320° at 11 knots 10,000+ meters
  • Few at 4,700' AGL
  • Scattered at 5,300' AGL
Temperatures Readings
Current 12°C / 54°F
Dewpoint 3°C / 37°F
Humidity 54%
Altimeter 30.06" Hg
Pressure 1018 hPa
Elevation 30
METAR ESMT 241120Z 32011KT 9999 FEW047 SCT053 12/03 Q1018
Observed Flight Rules
Sep-24 @ 11:20 UTC
(12 minutes ago)
VFR
Wind Visibility
320° at 11 knots 10,000+ meters
Clouds
  • Few at 4,700' AGL
  • Scattered at 5,300' AGL
Temperature Dewpoint
12°C / 54°F 3°C / 37°F
Humidity Altimeter Pressure
54% 30.06" Hg 1018 hPa